createdAt,value
2018-07-31T00:00:11.350Z,24.50
2018-07-31T00:02:39.395Z,24.50
2018-07-31T00:05:07.568Z,24.40
2018-07-31T00:07:35.609Z,24.30
2018-07-31T00:10:03.709Z,24.40
2018-07-31T00:12:31.785Z,24.30
2018-07-31T00:14:59.838Z,24.30
2018-07-31T00:17:27.849Z,24.30
2018-07-31T00:19:55.974Z,24.30
2018-07-31T00:22:24.070Z,24.20
2018-07-31T00:24:52.232Z,24.20
2018-07-31T00:27:20.254Z,24.20
2018-07-31T00:29:48.366Z,24.20
2018-07-31T00:32:16.429Z,24.10
2018-07-31T00:34:44.509Z,24.10
2018-07-31T00:37:12.513Z,24.10
2018-07-31T00:39:40.581Z,24.10
2018-07-31T00:42:08.690Z,24.00
2018-07-31T00:44:36.784Z,24.00
2018-07-31T00:47:04.827Z,23.90
2018-07-31T00:49:32.886Z,23.80
2018-07-31T00:52:00.977Z,23.80
2018-07-31T00:54:29.080Z,23.70
2018-07-31T00:56:57.134Z,23.70
2018-07-31T00:59:25.293Z,23.70
2018-07-31T01:01:53.303Z,23.60
2018-07-31T01:04:21.437Z,23.60
2018-07-31T01:06:49.482Z,23.60
2018-07-31T01:09:17.689Z,23.60
2018-07-31T01:11:45.731Z,23.60
2018-07-31T01:14:13.763Z,23.60
2018-07-31T01:16:42.035Z,23.60
2018-07-31T01:19:11.143Z,23.50
2018-07-31T01:21:39.581Z,23.50
2018-07-31T01:24:08.123Z,23.50
2018-07-31T01:26:36.245Z,23.50
2018-07-31T01:29:04.425Z,23.50
2018-07-31T01:31:32.442Z,23.50
2018-07-31T01:34:00.572Z,23.40
2018-07-31T01:36:28.729Z,23.50
2018-07-31T01:38:56.801Z,23.40
2018-07-31T01:41:24.848Z,23.40
2018-07-31T01:43:52.906Z,23.30
2018-07-31T01:48:48.786Z,23.20
2018-07-31T01:51:16.842Z,23.20
2018-07-31T01:53:44.938Z,23.20
2018-07-31T01:56:12.957Z,23.10
2018-07-31T01:58:41.077Z,23.10
2018-07-31T02:01:09.102Z,23.10
2018-07-31T02:03:37.223Z,23.10
2018-07-31T02:06:05.253Z,23.00
2018-07-31T02:08:33.298Z,23.00
2018-07-31T02:11:01.418Z,23.10
2018-07-31T02:13:29.429Z,23.00
2018-07-31T02:15:57.583Z,23.00
2018-07-31T02:18:25.586Z,23.00
2018-07-31T02:20:53.717Z,22.90
2018-07-31T02:23:21.739Z,22.90
2018-07-31T02:25:49.899Z,22.90
2018-07-31T02:28:18.035Z,22.90
2018-07-31T02:30:46.034Z,22.80
2018-07-31T02:33:14.084Z,22.80
2018-07-31T02:35:42.138Z,22.80
2018-07-31T02:38:10.158Z,22.80
2018-07-31T02:40:38.331Z,22.80
2018-07-31T02:43:06.428Z,22.80
2018-07-31T02:48:02.262Z,22.80
2018-07-31T02:50:30.310Z,22.70
2018-07-31T02:52:58.353Z,22.70
2018-07-31T02:55:26.427Z,22.60
2018-07-31T02:57:54.437Z,22.70
2018-07-31T03:00:22.505Z,22.60
2018-07-31T03:02:50.505Z,22.60
2018-07-31T03:05:18.592Z,22.60
2018-07-31T03:07:46.691Z,22.50
2018-07-31T03:10:14.771Z,22.50
2018-07-31T03:12:42.785Z,22.50
2018-07-31T03:15:11.521Z,22.50
2018-07-31T03:17:39.805Z,22.50
2018-07-31T03:20:08.421Z,22.50
2018-07-31T03:22:36.657Z,22.50
2018-07-31T03:25:05.137Z,22.50
2018-07-31T03:27:33.218Z,22.40
2018-07-31T03:30:01.270Z,22.40
2018-07-31T03:32:29.457Z,22.40
2018-07-31T03:34:57.541Z,22.40
2018-07-31T03:37:25.634Z,22.30
2018-07-31T03:39:53.774Z,22.40
2018-07-31T03:42:21.854Z,22.40
2018-07-31T03:44:49.927Z,22.40
2018-07-31T03:47:17.955Z,22.40
2018-07-31T03:49:45.998Z,22.40
2018-07-31T03:52:14.107Z,22.40
2018-07-31T03:54:42.357Z,22.50
2018-07-31T03:57:10.420Z,22.50
2018-07-31T03:59:38.457Z,22.50
2018-07-31T04:02:07.042Z,22.60
2018-07-31T04:04:35.189Z,22.60
2018-07-31T04:07:03.262Z,22.60
2018-07-31T04:09:31.341Z,22.70
2018-07-31T04:11:59.477Z,22.70
2018-07-31T04:14:27.565Z,22.70
2018-07-31T04:16:55.699Z,22.70
2018-07-31T04:19:23.753Z,22.70
2018-07-31T04:21:51.900Z,22.80
2018-07-31T04:24:19.953Z,22.80
2018-07-31T04:26:48.040Z,22.80
2018-07-31T04:29:16.093Z,22.80
2018-07-31T04:31:44.266Z,22.80
2018-07-31T04:34:12.293Z,22.80
2018-07-31T04:36:40.401Z,22.80
2018-07-31T04:39:09.237Z,22.80
2018-07-31T04:41:37.401Z,22.80
2018-07-31T04:44:05.441Z,22.90
2018-07-31T04:46:33.486Z,22.90
2018-07-31T04:49:01.594Z,23.00
2018-07-31T04:51:29.666Z,23.10
2018-07-31T04:53:57.675Z,23.10
2018-07-31T04:56:25.733Z,23.20
2018-07-31T04:58:53.903Z,23.20
2018-07-31T05:01:22.053Z,23.30
2018-07-31T05:03:50.156Z,23.30
2018-07-31T05:06:18.183Z,23.50
2018-07-31T05:08:46.225Z,23.40
2018-07-31T05:11:14.275Z,23.50
2018-07-31T05:13:42.417Z,23.50
2018-07-31T05:16:10.490Z,23.50
2018-07-31T05:18:38.515Z,23.60
2018-07-31T05:21:06.786Z,23.70
2018-07-31T05:23:34.793Z,23.80
2018-07-31T05:26:02.885Z,23.80
2018-07-31T05:28:30.892Z,23.90
2018-07-31T05:30:58.925Z,24.00
2018-07-31T05:33:27.209Z,24.00
2018-07-31T05:35:55.281Z,24.10
2018-07-31T05:38:23.341Z,24.20
2018-07-31T05:40:51.518Z,24.30
2018-07-31T05:43:19.574Z,24.40
2018-07-31T05:45:47.657Z,24.50
2018-07-31T05:48:15.733Z,24.50
2018-07-31T05:50:43.795Z,24.60
2018-07-31T05:53:11.865Z,24.70
2018-07-31T05:55:39.929Z,24.80
2018-07-31T05:58:07.947Z,24.80
2018-07-31T06:00:35.989Z,24.90
2018-07-31T06:03:04.114Z,24.90
2018-07-31T06:05:32.242Z,25.00
2018-07-31T06:08:00.274Z,25.00
2018-07-31T06:10:28.388Z,25.10
2018-07-31T06:12:56.459Z,25.10
2018-07-31T06:15:24.630Z,25.20
2018-07-31T06:17:52.557Z,25.30
2018-07-31T06:20:20.678Z,25.40
2018-07-31T06:22:48.749Z,25.40
2018-07-31T06:25:16.828Z,25.50
2018-07-31T06:27:45.111Z,25.60
2018-07-31T06:30:14.402Z,25.70
2018-07-31T06:32:43.090Z,25.80
2018-07-31T06:35:11.191Z,25.80
2018-07-31T06:37:39.437Z,25.90
2018-07-31T06:40:07.929Z,26.00
2018-07-31T06:42:35.997Z,26.10
2018-07-31T06:45:04.282Z,26.20
2018-07-31T06:47:32.441Z,26.20
2018-07-31T06:50:00.493Z,26.30
2018-07-31T06:52:28.545Z,26.30
2018-07-31T06:54:56.553Z,26.50
2018-07-31T06:57:24.599Z,26.60
2018-07-31T06:59:52.709Z,26.80
2018-07-31T07:02:20.782Z,26.90
2018-07-31T07:04:48.794Z,27.00
2018-07-31T07:07:16.934Z,27.00
2018-07-31T07:09:44.941Z,27.10
2018-07-31T07:12:13.073Z,27.30
2018-07-31T07:14:41.085Z,27.30
2018-07-31T07:17:09.145Z,27.30
2018-07-31T07:19:37.171Z,27.50
2018-07-31T07:22:05.214Z,27.60
2018-07-31T07:24:33.237Z,27.80
2018-07-31T07:27:01.346Z,27.90
2018-07-31T07:29:29.534Z,28.00
2018-07-31T07:31:57.593Z,28.00
2018-07-31T07:34:25.870Z,28.20
2018-07-31T07:36:53.925Z,28.30
2018-07-31T07:39:22.010Z,28.30
2018-07-31T07:41:50.194Z,28.40
2018-07-31T07:44:18.225Z,28.50
2018-07-31T07:46:46.329Z,28.60
2018-07-31T07:49:14.398Z,28.70
2018-07-31T07:51:42.422Z,28.70
2018-07-31T07:54:10.643Z,28.90
2018-07-31T07:56:38.597Z,29.00
2018-07-31T07:59:06.693Z,29.10
2018-07-31T08:01:34.710Z,29.30
2018-07-31T08:04:02.897Z,29.40
2018-07-31T08:06:30.905Z,29.50
2018-07-31T08:08:58.966Z,29.70
2018-07-31T08:11:27.002Z,29.80
2018-07-31T08:13:55.129Z,29.90
2018-07-31T08:16:23.162Z,30.10
2018-07-31T08:18:51.303Z,30.10
2018-07-31T08:21:19.322Z,30.20
2018-07-31T08:23:47.369Z,30.30
2018-07-31T08:26:15.385Z,30.40
2018-07-31T08:28:43.442Z,30.60
2018-07-31T08:31:11.645Z,30.70
2018-07-31T08:33:39.978Z,30.80
2018-07-31T08:36:07.882Z,30.90
2018-07-31T08:38:35.954Z,31.10
2018-07-31T08:41:04.030Z,31.20
2018-07-31T08:43:32.082Z,31.20
2018-07-31T08:46:00.103Z,31.30
2018-07-31T08:48:28.181Z,31.40
2018-07-31T08:50:56.194Z,31.60
2018-07-31T08:53:24.297Z,31.70
2018-07-31T08:55:52.336Z,31.80
2018-07-31T08:58:20.354Z,32.00
2018-07-31T09:00:48.369Z,32.10
2018-07-31T09:03:16.431Z,32.00
2018-07-31T09:05:44.442Z,32.10
2018-07-31T09:08:12.572Z,32.10
2018-07-31T09:10:40.585Z,32.20
2018-07-31T09:13:08.660Z,32.30
2018-07-31T09:15:36.737Z,32.30
2018-07-31T09:18:04.773Z,32.40
2018-07-31T09:20:32.794Z,32.30
2018-07-31T09:23:00.882Z,32.40
2018-07-31T09:25:33.218Z,32.50
2018-07-31T09:28:01.289Z,32.60
2018-07-31T09:30:29.356Z,32.60
2018-07-31T09:33:02.921Z,32.70
2018-07-31T09:35:30.960Z,32.70
2018-07-31T09:37:59.068Z,32.60
2018-07-31T09:40:27.083Z,32.60
2018-07-31T09:42:55.149Z,32.70
2018-07-31T09:45:23.230Z,32.80
2018-07-31T09:47:51.262Z,32.80
2018-07-31T09:50:19.374Z,33.00
2018-07-31T09:52:47.418Z,33.10
2018-07-31T09:55:15.519Z,33.20
2018-07-31T09:57:43.602Z,33.30
2018-07-31T10:00:11.669Z,33.30
2018-07-31T10:02:39.699Z,33.40
2018-07-31T10:07:35.574Z,33.50
2018-07-31T10:10:03.777Z,33.60
2018-07-31T10:12:31.850Z,33.60
2018-07-31T10:14:59.878Z,33.90
2018-07-31T10:17:27.966Z,33.90
2018-07-31T10:19:56.015Z,34.00
2018-07-31T10:22:24.036Z,34.00
2018-07-31T10:24:52.079Z,33.90
2018-07-31T10:27:20.146Z,33.90
2018-07-31T10:29:48.210Z,34.00
2018-07-31T10:32:16.294Z,34.00
2018-07-31T10:34:44.342Z,34.10
2018-07-31T10:37:12.755Z,34.00
2018-07-31T10:39:40.807Z,34.10
2018-07-31T10:42:08.858Z,34.30
2018-07-31T10:47:04.739Z,34.50
2018-07-31T10:49:32.810Z,34.60
2018-07-31T10:52:00.830Z,34.70
2018-07-31T10:54:28.877Z,34.70
2018-07-31T10:56:56.917Z,34.80
2018-07-31T10:59:24.962Z,34.80
2018-07-31T11:01:52.969Z,34.90
2018-07-31T11:04:21.131Z,34.90
2018-07-31T11:06:49.049Z,34.90
2018-07-31T11:09:17.187Z,34.90
2018-07-31T11:11:45.280Z,35.00
2018-07-31T11:14:13.355Z,35.00
2018-07-31T11:16:41.365Z,35.10
2018-07-31T11:19:09.413Z,35.10
2018-07-31T11:21:37.417Z,35.20
2018-07-31T11:24:05.459Z,35.30
2018-07-31T11:26:33.485Z,35.30
2018-07-31T11:29:01.513Z,35.40
2018-07-31T11:31:29.537Z,35.50
2018-07-31T11:33:57.697Z,35.40
2018-07-31T11:36:25.698Z,35.50
2018-07-31T11:38:53.742Z,35.60
2018-07-31T11:41:21.795Z,35.50
2018-07-31T11:43:49.920Z,35.60
2018-07-31T11:46:17.950Z,35.60
2018-07-31T11:48:46.357Z,35.60
2018-07-31T11:51:14.408Z,35.80
2018-07-31T11:53:42.512Z,35.80
2018-07-31T11:56:10.659Z,36.00
2018-07-31T11:58:38.867Z,36.00
2018-07-31T12:01:06.909Z,36.00
2018-07-31T12:03:34.925Z,36.10
2018-07-31T12:06:02.967Z,36.40
2018-07-31T12:08:33.290Z,36.50
2018-07-31T12:11:01.442Z,36.50
2018-07-31T12:13:29.478Z,36.60
2018-07-31T12:15:57.622Z,36.60
2018-07-31T12:18:25.696Z,36.80
2018-07-31T12:20:53.799Z,37.40
2018-07-31T12:23:21.774Z,38.70
2018-07-31T12:25:49.894Z,40.60
2018-07-31T12:28:17.921Z,42.10
2018-07-31T12:30:46.058Z,43.50
2018-07-31T12:33:14.161Z,44.60
2018-07-31T12:35:42.142Z,46.10
2018-07-31T12:38:10.182Z,47.20
2018-07-31T12:40:38.224Z,49.40
2018-07-31T12:43:06.394Z,47.90
2018-07-31T12:45:34.442Z,50.50
2018-07-31T12:48:02.465Z,50.20
2018-07-31T12:50:30.524Z,50.70
2018-07-31T12:52:58.545Z,50.80
2018-07-31T12:55:26.629Z,50.40
2018-07-31T12:57:54.654Z,50.10
2018-07-31T13:00:22.719Z,49.80
2018-07-31T13:02:50.771Z,50.20
2018-07-31T13:05:18.829Z,51.90
2018-07-31T13:07:46.909Z,51.00
2018-07-31T13:10:14.982Z,51.90
2018-07-31T13:12:43.002Z,48.90
2018-07-31T13:15:11.042Z,49.00
2018-07-31T13:17:39.061Z,48.80
2018-07-31T13:20:07.113Z,49.00
2018-07-31T13:22:35.127Z,49.00
2018-07-31T13:25:03.194Z,49.90
2018-07-31T13:27:31.280Z,49.60
2018-07-31T13:29:59.383Z,49.10
2018-07-31T13:32:27.429Z,48.50
2018-07-31T13:34:55.528Z,49.10
2018-07-31T13:37:23.549Z,48.30
2018-07-31T13:39:51.662Z,47.20
2018-07-31T13:42:19.745Z,48.20
2018-07-31T13:44:47.820Z,49.00
2018-07-31T13:47:15.854Z,48.10
2018-07-31T13:49:43.929Z,49.00
2018-07-31T13:52:11.974Z,49.70
2018-07-31T13:54:40.019Z,49.50
2018-07-31T13:57:08.069Z,50.50
2018-07-31T13:59:36.101Z,50.50
2018-07-31T14:02:04.150Z,50.10
2018-07-31T14:04:32.294Z,50.40
2018-07-31T14:07:00.382Z,50.90
2018-07-31T14:09:28.372Z,50.20
2018-07-31T14:11:56.477Z,49.00
2018-07-31T14:14:24.491Z,48.70
2018-07-31T14:16:52.554Z,49.20
2018-07-31T14:19:20.589Z,49.30
2018-07-31T14:21:48.681Z,48.80
2018-07-31T14:24:16.725Z,49.30
2018-07-31T14:26:44.818Z,48.90
2018-07-31T14:29:12.893Z,48.70
2018-07-31T14:31:40.950Z,49.40
2018-07-31T14:34:09.039Z,49.80
2018-07-31T14:36:37.129Z,49.40
2018-07-31T14:39:06.716Z,49.60
2018-07-31T14:41:34.934Z,49.30
2018-07-31T14:44:02.969Z,46.30
2018-07-31T14:46:31.030Z,47.00
2018-07-31T14:48:59.101Z,46.30
2018-07-31T14:51:27.189Z,46.50
2018-07-31T14:53:55.380Z,47.30
2018-07-31T14:56:23.630Z,47.80
2018-07-31T14:58:51.995Z,48.20
2018-07-31T15:01:20.090Z,48.20
2018-07-31T15:03:48.271Z,47.80
2018-07-31T15:06:16.430Z,47.20
2018-07-31T15:08:44.507Z,47.70
2018-07-31T15:11:12.682Z,48.30
2018-07-31T15:13:40.917Z,48.10
2018-07-31T15:16:09.006Z,47.70
2018-07-31T15:18:37.019Z,47.40
2018-07-31T15:21:05.233Z,47.60
2018-07-31T15:23:33.305Z,47.30
2018-07-31T15:26:01.530Z,47.30
2018-07-31T15:28:29.566Z,47.30
2018-07-31T15:30:57.900Z,47.60
2018-07-31T15:33:26.158Z,48.00
2018-07-31T15:35:54.454Z,48.20
2018-07-31T15:38:22.598Z,48.00
2018-07-31T15:40:50.645Z,48.40
2018-07-31T15:43:18.962Z,47.70
2018-07-31T15:45:47.049Z,48.30
2018-07-31T15:48:15.214Z,47.70
2018-07-31T15:50:43.208Z,47.10
2018-07-31T15:53:11.291Z,46.50
2018-07-31T15:55:39.303Z,46.30
2018-07-31T15:58:07.441Z,45.90
2018-07-31T16:00:35.649Z,46.10
2018-07-31T16:03:03.865Z,46.20
2018-07-31T16:05:31.937Z,46.40
2018-07-31T16:08:00.086Z,46.80
2018-07-31T16:10:28.203Z,46.50
2018-07-31T16:12:56.441Z,46.60
2018-07-31T16:15:24.445Z,46.40
2018-07-31T16:17:52.493Z,46.30
2018-07-31T16:20:20.537Z,45.70
2018-07-31T16:22:48.616Z,45.40
2018-07-31T16:25:16.610Z,45.50
2018-07-31T16:27:44.681Z,45.60
2018-07-31T16:30:12.722Z,45.70
2018-07-31T16:32:40.822Z,45.50
2018-07-31T16:35:08.889Z,45.90
2018-07-31T16:37:36.990Z,45.50
2018-07-31T16:40:05.062Z,45.60
2018-07-31T16:42:33.217Z,45.40
2018-07-31T16:45:01.325Z,45.40
2018-07-31T16:47:29.460Z,45.10
2018-07-31T16:49:57.525Z,44.60
2018-07-31T16:52:25.617Z,44.00
2018-07-31T16:54:53.661Z,43.80
2018-07-31T16:57:21.742Z,43.70
2018-07-31T16:59:49.843Z,43.70
2018-07-31T17:02:18.018Z,43.40
2018-07-31T17:04:46.075Z,43.50
2018-07-31T17:07:14.137Z,43.10
2018-07-31T17:09:42.149Z,43.10
2018-07-31T17:12:10.413Z,43.00
2018-07-31T17:14:38.479Z,43.00
2018-07-31T17:17:06.518Z,43.60
2018-07-31T17:19:34.680Z,42.70
2018-07-31T17:22:02.697Z,42.80
2018-07-31T17:24:30.842Z,42.70
2018-07-31T17:26:59.137Z,42.70
2018-07-31T17:29:27.222Z,42.70
2018-07-31T17:31:55.253Z,41.80
2018-07-31T17:34:23.318Z,41.70
2018-07-31T17:36:51.356Z,41.50
2018-07-31T17:39:19.403Z,40.80
2018-07-31T17:41:47.457Z,40.60
2018-07-31T17:44:15.585Z,40.10
2018-07-31T17:46:43.645Z,40.00
2018-07-31T17:49:11.681Z,39.70
2018-07-31T17:51:39.718Z,39.00
2018-07-31T17:54:08.060Z,38.20
2018-07-31T17:56:36.125Z,37.80
2018-07-31T17:59:04.198Z,37.50
2018-07-31T18:01:32.329Z,37.20
2018-07-31T18:04:00.365Z,36.80
2018-07-31T18:06:28.487Z,36.50
2018-07-31T18:08:56.748Z,36.30
2018-07-31T18:11:24.730Z,36.10
2018-07-31T18:13:52.813Z,35.90
2018-07-31T18:16:20.857Z,35.60
2018-07-31T18:18:48.894Z,35.60
2018-07-31T18:21:16.922Z,35.70
2018-07-31T18:23:45.039Z,35.70
2018-07-31T18:26:13.089Z,35.70
2018-07-31T18:28:41.140Z,35.80
2018-07-31T18:31:09.205Z,35.70
2018-07-31T18:33:37.284Z,35.40
2018-07-31T18:36:05.365Z,35.30
2018-07-31T18:38:33.626Z,34.90
2018-07-31T18:41:01.773Z,34.80
2018-07-31T18:43:30.424Z,34.60
2018-07-31T18:45:58.423Z,34.30
2018-07-31T18:48:26.574Z,34.20
2018-07-31T18:50:54.986Z,32.20
2018-07-31T18:53:23.051Z,33.70
2018-07-31T18:55:51.258Z,33.50
2018-07-31T18:58:19.279Z,33.30
2018-07-31T19:00:47.305Z,33.10
2018-07-31T19:03:15.330Z,32.90
2018-07-31T19:05:43.443Z,32.70
2018-07-31T19:08:11.453Z,32.50
2018-07-31T19:10:39.632Z,32.30
2018-07-31T19:13:07.665Z,32.20
2018-07-31T19:15:35.824Z,32.00
2018-07-31T19:18:03.855Z,31.90
2018-07-31T19:20:31.978Z,31.70
2018-07-31T19:23:00.126Z,31.60
2018-07-31T19:25:28.195Z,31.40
2018-07-31T19:27:56.359Z,31.30
2018-07-31T19:30:24.338Z,31.20
2018-07-31T19:32:52.442Z,31.10
2018-07-31T19:35:20.490Z,31.00
2018-07-31T19:37:48.586Z,30.80
2018-07-31T19:40:16.634Z,30.80
2018-07-31T19:42:44.818Z,30.70
2018-07-31T19:45:12.890Z,30.60
2018-07-31T19:47:40.953Z,30.50
2018-07-31T19:50:09.010Z,30.40
2018-07-31T19:52:37.057Z,30.40
2018-07-31T19:55:05.146Z,30.30
2018-07-31T19:57:34.010Z,30.20
2018-07-31T20:00:02.046Z,30.20
2018-07-31T20:02:30.057Z,30.10
2018-07-31T20:04:58.178Z,30.00
2018-07-31T20:07:26.255Z,29.90
2018-07-31T20:09:54.582Z,29.90
2018-07-31T20:12:22.701Z,29.80
2018-07-31T20:14:50.749Z,29.80
2018-07-31T20:17:19.021Z,29.70
2018-07-31T20:19:47.140Z,29.70
2018-07-31T20:22:15.139Z,29.60
2018-07-31T20:24:43.326Z,29.60
2018-07-31T20:27:11.458Z,29.50
2018-07-31T20:29:39.709Z,29.50
2018-07-31T20:32:07.729Z,29.50
2018-07-31T20:34:36.292Z,29.40
2018-07-31T20:37:05.134Z,29.40
2018-07-31T20:39:33.153Z,29.40
2018-07-31T20:42:01.609Z,29.30
2018-07-31T20:44:29.627Z,29.30
2018-07-31T20:46:57.685Z,29.20
2018-07-31T20:49:25.733Z,29.20
2018-07-31T20:51:53.826Z,29.20
2018-07-31T20:54:21.862Z,29.10
2018-07-31T20:56:49.955Z,29.10
2018-07-31T20:59:17.981Z,29.00
2018-07-31T21:01:46.112Z,29.00
2018-07-31T21:04:14.154Z,29.00
2018-07-31T21:06:42.186Z,29.00
2018-07-31T21:09:11.915Z,28.90
2018-07-31T21:11:40.044Z,28.90
2018-07-31T21:14:08.082Z,28.80
2018-07-31T21:16:36.149Z,28.80
2018-07-31T21:19:04.173Z,28.80
2018-07-31T21:21:32.293Z,28.80
2018-07-31T21:24:00.379Z,28.70
2018-07-31T21:26:28.472Z,28.70
2018-07-31T21:28:56.513Z,28.70
2018-07-31T21:31:24.586Z,28.60
2018-07-31T21:33:52.617Z,28.60
2018-07-31T21:36:20.697Z,28.50
2018-07-31T21:38:48.714Z,28.50
2018-07-31T21:41:16.875Z,28.50
2018-07-31T21:43:44.987Z,28.40
2018-07-31T21:46:13.093Z,28.40
2018-07-31T21:48:41.193Z,28.30
2018-07-31T21:51:09.282Z,28.30
2018-07-31T21:53:37.400Z,28.30
2018-07-31T21:56:05.566Z,28.30
2018-07-31T21:58:33.586Z,28.20
2018-07-31T22:01:07.854Z,28.20
2018-07-31T22:03:36.931Z,28.10
2018-07-31T22:06:05.589Z,28.10
2018-07-31T22:08:33.997Z,28.00
2018-07-31T22:11:02.150Z,28.00
2018-07-31T22:13:30.222Z,27.90
2018-07-31T22:15:58.389Z,27.90
2018-07-31T22:18:26.469Z,27.90
2018-07-31T22:20:54.542Z,27.90
2018-07-31T22:23:22.610Z,27.80
2018-07-31T22:25:50.666Z,27.80
2018-07-31T22:28:18.750Z,27.70
2018-07-31T22:30:46.788Z,27.70
2018-07-31T22:33:14.927Z,27.60
2018-07-31T22:35:42.965Z,27.60
2018-07-31T22:38:11.002Z,27.50
2018-07-31T22:40:39.113Z,27.50
2018-07-31T22:43:07.187Z,27.50
2018-07-31T22:45:35.282Z,27.50
2018-07-31T22:48:03.328Z,27.50
2018-07-31T22:50:31.329Z,27.50
2018-07-31T22:52:59.377Z,27.50
2018-07-31T22:55:27.468Z,27.40
2018-07-31T22:57:55.517Z,27.40
2018-07-31T23:00:23.521Z,27.40
2018-07-31T23:02:51.665Z,27.40
2018-07-31T23:05:19.696Z,27.40
2018-07-31T23:07:47.837Z,27.40
2018-07-31T23:10:19.166Z,27.40
2018-07-31T23:12:47.942Z,27.40
2018-07-31T23:15:16.021Z,27.30
2018-07-31T23:17:44.110Z,27.30
2018-07-31T23:20:12.126Z,27.30
2018-07-31T23:22:44.703Z,27.20
2018-07-31T23:25:12.717Z,27.20
2018-07-31T23:27:40.760Z,27.20
2018-07-31T23:30:09.161Z,27.20
2018-07-31T23:32:37.749Z,27.20
2018-07-31T23:35:06.156Z,27.10
2018-07-31T23:37:34.195Z,27.10
2018-07-31T23:40:03.297Z,27.10
2018-07-31T23:42:32.007Z,27.10
2018-07-31T23:45:00.071Z,27.10
2018-07-31T23:47:28.992Z,27.00
2018-07-31T23:49:57.649Z,27.00
2018-07-31T23:52:25.710Z,27.00
2018-07-31T23:54:53.788Z,27.00
2018-07-31T23:57:21.847Z,27.00
2018-07-31T23:59:50.365Z,27.00
